createdAt,value
2016-11-05T00:00:58.151Z,996.03
2016-11-05T00:02:08.448Z,996.05
2016-11-05T00:03:18.759Z,996.05
2016-11-05T00:04:28.121Z,996.03
2016-11-05T00:05:37.506Z,996.04
2016-11-05T00:06:47.523Z,995.97
2016-11-05T00:07:57.851Z,995.93
2016-11-05T00:09:07.854Z,995.96
2016-11-05T00:10:17.819Z,996.03
2016-11-05T00:11:28.103Z,995.99
2016-11-05T00:12:38.398Z,995.99
2016-11-05T00:13:48.676Z,995.92
2016-11-05T00:14:58.637Z,995.92
2016-11-05T00:16:08.923Z,995.92
2016-11-05T00:17:19.210Z,995.92
2016-11-05T00:18:29.184Z,995.96
2016-11-05T00:19:39.170Z,995.99
2016-11-05T00:20:49.451Z,995.99
2016-11-05T00:21:59.732Z,995.96
2016-11-05T00:23:09.717Z,995.96
2016-11-05T00:24:20.010Z,996.01
2016-11-05T00:25:29.667Z,996.13
2016-11-05T00:26:39.648Z,996.11
2016-11-05T00:27:49.966Z,996.1
2016-11-05T00:28:59.924Z,996.02
2016-11-05T00:30:10.245Z,995.97
2016-11-05T00:31:19.933Z,995.93
2016-11-05T00:32:29.931Z,995.94
2016-11-05T00:33:39.600Z,995.96
2016-11-05T00:34:49.879Z,995.94
2016-11-05T00:35:59.860Z,995.93
2016-11-05T00:37:10.129Z,995.84
2016-11-05T00:38:19.802Z,995.76
2016-11-05T00:39:29.458Z,995.66
2016-11-05T00:40:39.740Z,995.71
2016-11-05T00:41:49.698Z,995.78
2016-11-05T00:42:59.980Z,995.78
2016-11-05T00:44:09.980Z,995.79
2016-11-05T00:45:19.956Z,995.75
2016-11-05T00:46:30.265Z,995.73
2016-11-05T00:47:40.559Z,995.69
2016-11-05T00:48:50.840Z,995.64
2016-11-05T00:50:00.828Z,995.66
2016-11-05T00:51:10.826Z,995.66
2016-11-05T00:52:20.793Z,995.66
2016-11-05T00:53:30.749Z,995.67
2016-11-05T00:54:41.027Z,995.69
2016-11-05T00:55:51.292Z,995.55
2016-11-05T00:57:01.574Z,995.55
2016-11-05T00:58:11.852Z,995.5
2016-11-05T00:59:21.826Z,995.5
2016-11-05T01:00:31.803Z,995.51
2016-11-05T01:01:41.789Z,995.54
2016-11-05T01:02:52.080Z,995.56
2016-11-05T01:04:02.353Z,995.57
2016-11-05T01:05:12.645Z,995.58
2016-11-05T01:06:22.943Z,995.66
2016-11-05T01:07:33.241Z,995.68
2016-11-05T01:08:43.215Z,995.69
2016-11-05T01:09:53.185Z,995.67
2016-11-05T01:11:03.455Z,995.62
2016-11-05T01:12:13.423Z,995.62
2016-11-05T01:13:23.700Z,995.6
2016-11-05T01:14:33.992Z,995.6
2016-11-05T01:15:44.326Z,995.6
2016-11-05T01:16:54.310Z,995.6
2016-11-05T01:18:04.293Z,995.57
2016-11-05T01:19:14.261Z,995.58
2016-11-05T01:20:24.540Z,995.62
2016-11-05T01:21:34.515Z,995.54
2016-11-05T01:22:44.826Z,995.56
2016-11-05T01:23:54.807Z,995.46
2016-11-05T01:25:04.818Z,995.46
2016-11-05T01:26:15.098Z,995.38
2016-11-05T01:27:25.387Z,995.34
2016-11-05T01:28:35.060Z,995.34
2016-11-05T01:29:45.035Z,995.33
2016-11-05T01:30:55.018Z,995.34
2016-11-05T01:32:05.284Z,995.3
2016-11-05T01:33:15.553Z,995.27
2016-11-05T01:34:25.515Z,995.3
2016-11-05T01:35:35.799Z,995.22
2016-11-05T01:36:45.766Z,995.17
2016-11-05T01:37:55.738Z,995.19
2016-11-05T01:39:05.693Z,995.2
2016-11-05T01:40:15.350Z,995.2
2016-11-05T01:41:25.324Z,995.2
2016-11-05T01:42:35.589Z,995.19
2016-11-05T01:43:45.565Z,995.25
2016-11-05T01:44:55.838Z,995.22
2016-11-05T01:46:05.848Z,995.22
2016-11-05T01:47:16.123Z,995.16
2016-11-05T01:48:26.404Z,995.18
2016-11-05T01:49:36.662Z,995.14
2016-11-05T01:50:46.321Z,995.18
2016-11-05T01:51:56.292Z,995.15
2016-11-05T01:53:05.941Z,995.09
2016-11-05T01:54:15.626Z,995.14
2016-11-05T01:55:25.952Z,995.08
2016-11-05T01:56:36.229Z,995.08
2016-11-05T01:57:46.546Z,995.15
2016-11-05T01:58:56.232Z,995.09
2016-11-05T02:00:05.904Z,995.07
2016-11-05T02:01:15.881Z,995.1
2016-11-05T02:02:25.224Z,995.06
2016-11-05T02:03:35.194Z,995.01
2016-11-05T02:04:45.460Z,995.05
2016-11-05T02:05:55.738Z,995.06
2016-11-05T02:07:05.734Z,995.08
2016-11-05T02:08:16.021Z,995.09
2016-11-05T02:09:26.009Z,995.02
2016-11-05T02:10:36.279Z,994.95
2016-11-05T02:11:45.634Z,994.92
2016-11-05T02:12:55.302Z,994.91
2016-11-05T02:14:05.625Z,994.95
2016-11-05T02:15:15.586Z,994.92
2016-11-05T02:16:25.584Z,994.89
2016-11-05T02:17:35.559Z,994.88
2016-11-05T02:18:45.880Z,994.83
2016-11-05T02:19:55.245Z,994.78
2016-11-05T02:21:05.229Z,994.78
2016-11-05T02:22:15.501Z,994.82
2016-11-05T02:23:25.766Z,994.87
2016-11-05T02:24:36.033Z,994.92
2016-11-05T02:25:46.294Z,994.94
2016-11-05T02:26:56.269Z,994.95
2016-11-05T02:28:06.551Z,994.9
2016-11-05T02:29:16.262Z,994.89
2016-11-05T02:30:26.545Z,994.86
2016-11-05T02:31:36.498Z,994.87
2016-11-05T02:32:46.767Z,994.87
2016-11-05T02:33:57.052Z,994.86
2016-11-05T02:35:07.023Z,994.83
2016-11-05T02:36:16.999Z,994.84
2016-11-05T02:37:26.960Z,994.83
2016-11-05T02:38:36.927Z,994.86
2016-11-05T02:39:46.913Z,994.78
2016-11-05T02:40:57.190Z,994.77
2016-11-05T02:42:07.482Z,994.75
2016-11-05T02:43:17.444Z,994.75
2016-11-05T02:44:27.454Z,994.7
2016-11-05T02:45:37.717Z,994.73
2016-11-05T02:46:48.003Z,994.68
2016-11-05T02:47:57.984Z,994.75
2016-11-05T02:49:07.636Z,994.72
2016-11-05T02:50:17.603Z,994.7
2016-11-05T02:51:27.886Z,994.73
2016-11-05T02:52:37.852Z,994.73
2016-11-05T02:53:47.523Z,994.75
2016-11-05T02:54:57.803Z,994.76
2016-11-05T02:56:07.773Z,994.77
2016-11-05T02:57:18.036Z,994.73
2016-11-05T02:58:28.056Z,994.67
2016-11-05T02:59:38.330Z,994.7
2016-11-05T03:00:47.999Z,994.7
2016-11-05T03:32:18.637Z,994.71
2016-11-05T03:33:28.600Z,994.72
2016-11-05T03:34:38.888Z,994.73
2016-11-05T03:35:48.888Z,994.76
2016-11-05T03:36:59.155Z,994.76
2016-11-05T03:38:09.124Z,994.77
2016-11-05T03:39:19.452Z,994.77
2016-11-05T03:40:29.731Z,994.75
2016-11-05T03:41:39.742Z,994.75
2016-11-05T03:42:49.694Z,994.72
2016-11-05T03:43:59.653Z,994.71
2016-11-05T03:45:09.929Z,994.76
2016-11-05T03:46:19.612Z,994.69
2016-11-05T03:47:29.578Z,994.69
2016-11-05T03:48:39.846Z,994.7
2016-11-05T03:49:50.137Z,994.7
2016-11-05T03:51:00.117Z,994.74
2016-11-05T03:52:10.083Z,994.73
2016-11-05T03:53:20.055Z,994.69
2016-11-05T03:54:29.726Z,994.71
2016-11-05T03:55:39.712Z,994.69
2016-11-05T03:56:49.381Z,994.71
2016-11-05T03:57:59.653Z,994.7
2016-11-05T03:59:09.610Z,994.66
2016-11-05T04:00:19.592Z,994.68
2016-11-05T04:01:29.266Z,994.64
2016-11-05T04:02:39.574Z,994.59
2016-11-05T04:03:49.857Z,994.61
2016-11-05T04:05:00.181Z,994.58
2016-11-05T04:06:10.165Z,994.56
2016-11-05T04:07:20.160Z,994.58
2016-11-05T04:08:30.129Z,994.62
2016-11-05T04:09:40.398Z,994.6
2016-11-05T04:10:50.680Z,994.6
2016-11-05T04:12:00.648Z,994.61
2016-11-05T04:13:10.304Z,994.56
2016-11-05T04:14:20.621Z,994.59
2016-11-05T04:15:30.915Z,994.56
2016-11-05T04:16:41.193Z,994.54
2016-11-05T04:17:51.505Z,994.5
2016-11-05T04:19:00.891Z,994.49
2016-11-05T04:20:11.167Z,994.49
2016-11-05T04:21:21.449Z,994.53
2016-11-05T04:22:31.433Z,994.5
2016-11-05T04:23:41.746Z,994.46
2016-11-05T04:24:52.020Z,994.49
2016-11-05T04:26:02.298Z,994.48
2016-11-05T04:27:12.584Z,994.48
2016-11-05T04:28:22.865Z,994.44
2016-11-05T04:29:33.132Z,994.39
2016-11-05T04:30:43.124Z,994.31
2016-11-05T04:31:52.794Z,994.24
2016-11-05T04:33:03.107Z,994.24
2016-11-05T04:34:12.770Z,994.26
2016-11-05T04:35:22.755Z,994.24
2016-11-05T04:36:33.060Z,994.29
2016-11-05T04:37:43.039Z,994.23
2016-11-05T04:38:53.007Z,994.27
2016-11-05T04:40:03.293Z,994.21
2016-11-05T04:41:13.294Z,994.13
2016-11-05T04:42:23.573Z,994.1
2016-11-05T04:43:33.848Z,994.18
2016-11-05T04:44:44.120Z,994.21
2016-11-05T04:45:54.394Z,994.26
2016-11-05T04:47:04.364Z,994.28
2016-11-05T04:48:14.637Z,994.32
2016-11-05T04:49:24.958Z,994.37
2016-11-05T04:50:34.957Z,994.37
2016-11-05T04:51:45.229Z,994.33
2016-11-05T04:52:54.588Z,994.22
2016-11-05T04:54:04.244Z,994.19
2016-11-05T04:55:14.535Z,994.2
2016-11-05T04:56:24.492Z,994.22
2016-11-05T04:57:34.164Z,994.21
2016-11-05T04:58:44.135Z,994.17
2016-11-05T04:59:54.101Z,994.16
2016-11-05T05:01:03.764Z,994.15
2016-11-05T05:02:13.729Z,994.11
2016-11-05T05:03:24.004Z,994.17
2016-11-05T05:04:34.295Z,994.17
2016-11-05T05:05:44.566Z,994.21
2016-11-05T05:06:54.851Z,994.26
2016-11-05T05:08:05.133Z,994.2
2016-11-05T05:09:15.096Z,994.19
2016-11-05T05:10:25.077Z,994.15
2016-11-05T05:11:35.063Z,994.06
2016-11-05T05:12:45.030Z,994.05
2016-11-05T05:13:55.008Z,994.03
2016-11-05T05:15:04.689Z,994.04
2016-11-05T05:16:14.961Z,994.05
2016-11-05T05:17:24.613Z,994.03
2016-11-05T05:18:34.574Z,993.99
2016-11-05T05:19:44.553Z,993.92
2016-11-05T05:20:54.517Z,993.86
2016-11-05T05:22:04.485Z,993.83
2016-11-05T05:23:14.782Z,993.81
2016-11-05T05:24:25.068Z,993.78
2016-11-05T05:25:35.334Z,993.8
2016-11-05T05:26:45.601Z,993.75
2016-11-05T05:27:55.877Z,993.71
2016-11-05T05:29:05.830Z,993.69
2016-11-05T05:30:15.801Z,993.69
2016-11-05T05:31:25.772Z,993.69
2016-11-05T05:32:36.049Z,993.61
2016-11-05T05:33:46.020Z,993.65
2016-11-05T05:34:56.339Z,993.65
2016-11-05T05:36:06.618Z,993.63
2016-11-05T05:37:16.592Z,993.68
2016-11-05T05:38:26.583Z,993.67
2016-11-05T05:39:36.239Z,993.62
2016-11-05T05:40:46.517Z,993.62
2016-11-05T05:41:56.515Z,993.58
2016-11-05T05:43:06.794Z,993.55
2016-11-05T05:44:17.082Z,993.57
2016-11-05T05:45:27.048Z,993.63
2016-11-05T05:46:37.324Z,993.64
2016-11-05T05:47:47.606Z,993.64
2016-11-05T05:48:57.573Z,993.64
2016-11-05T05:50:07.237Z,993.64
2016-11-05T05:51:17.190Z,993.67
2016-11-05T05:52:27.482Z,993.64
2016-11-05T05:53:37.448Z,993.58
2016-11-05T05:54:47.646Z,993.52
2016-11-05T05:55:57.918Z,993.58
2016-11-05T05:57:08.209Z,993.68
2016-11-05T05:58:18.215Z,993.68
2016-11-05T05:59:28.193Z,993.68
2016-11-05T06:00:37.869Z,993.65
2016-11-05T06:01:48.136Z,993.56
2016-11-05T06:02:58.102Z,993.58
2016-11-05T06:04:08.074Z,993.51
2016-11-05T06:05:18.045Z,993.52
2016-11-05T06:06:28.313Z,993.54
2016-11-05T06:07:38.589Z,993.57
2016-11-05T06:08:48.853Z,993.6
2016-11-05T06:09:59.134Z,993.62
2016-11-05T06:11:09.411Z,993.64
2016-11-05T06:12:19.710Z,993.63
2016-11-05T06:13:29.993Z,993.64
2016-11-05T06:14:39.659Z,993.62
2016-11-05T06:15:49.932Z,993.61
2016-11-05T06:16:59.899Z,993.65
2016-11-05T06:18:10.175Z,993.67
2016-11-05T06:19:19.828Z,993.66
2016-11-05T06:20:29.833Z,993.71
2016-11-05T06:21:39.814Z,993.67
2016-11-05T06:22:50.095Z,993.68
2016-11-05T06:24:00.372Z,993.64
2016-11-05T06:25:10.655Z,993.66
2016-11-05T06:26:20.939Z,993.7
2016-11-05T06:27:31.212Z,993.68
2016-11-05T06:28:40.869Z,993.72
2016-11-05T06:29:50.826Z,993.76
2016-11-05T06:31:00.798Z,993.81
2016-11-05T06:32:11.084Z,993.77
2016-11-05T06:33:21.387Z,993.8
2016-11-05T06:34:31.664Z,993.8
2016-11-05T06:35:41.955Z,993.78
2016-11-05T06:36:51.927Z,993.8
2016-11-05T06:38:02.232Z,993.76
2016-11-05T06:39:12.509Z,993.7
2016-11-05T06:40:22.183Z,993.68
2016-11-05T06:41:32.181Z,993.67
2016-11-05T06:42:42.469Z,993.69
2016-11-05T06:43:52.431Z,993.62
2016-11-05T06:45:02.402Z,993.62
2016-11-05T06:46:12.678Z,993.64
2016-11-05T06:47:22.955Z,993.66
2016-11-05T06:48:32.613Z,993.65
2016-11-05T06:49:42.893Z,993.67
2016-11-05T06:50:53.171Z,993.66
2016-11-05T06:52:03.151Z,993.6
2016-11-05T06:53:12.813Z,993.61
2016-11-05T06:54:23.110Z,993.59
2016-11-05T06:55:33.395Z,993.6
2016-11-05T06:56:43.362Z,993.58
2016-11-05T06:57:53.646Z,993.59
2016-11-05T06:59:03.303Z,993.56
2016-11-05T07:00:13.304Z,993.59
2016-11-05T07:01:22.967Z,993.57
2016-11-05T07:02:32.946Z,993.53
2016-11-05T07:03:42.907Z,993.54
2016-11-05T07:04:52.897Z,993.53
2016-11-05T07:06:02.870Z,993.53
2016-11-05T07:07:13.143Z,993.53
2016-11-05T07:08:23.434Z,993.52
2016-11-05T07:09:33.396Z,993.5
2016-11-05T07:10:43.707Z,993.47
2016-11-05T07:11:53.664Z,993.47
2016-11-05T07:13:03.666Z,993.46
2016-11-05T07:14:13.640Z,993.46
2016-11-05T07:15:23.634Z,993.5
2016-11-05T07:16:33.935Z,993.46
2016-11-05T07:17:44.218Z,993.47
2016-11-05T07:18:54.514Z,993.45
2016-11-05T07:20:04.817Z,993.39
2016-11-05T07:21:15.087Z,993.41
2016-11-05T07:22:25.068Z,993.4
2016-11-05T07:23:35.330Z,993.38
2016-11-05T07:24:45.601Z,993.35
2016-11-05T07:25:55.573Z,993.32
2016-11-05T07:27:05.870Z,993.3
2016-11-05T07:28:15.851Z,993.29
2016-11-05T07:29:25.823Z,993.29
2016-11-05T07:30:36.101Z,993.27
2016-11-05T07:31:46.077Z,993.27
2016-11-05T07:32:56.057Z,993.22
2016-11-05T07:34:06.340Z,993.24
2016-11-05T07:35:16.616Z,993.32
2016-11-05T07:36:26.643Z,993.25
2016-11-05T07:37:36.960Z,993.27
2016-11-05T07:38:47.239Z,993.26
2016-11-05T07:39:56.895Z,993.23
2016-11-05T07:41:07.181Z,993.24
2016-11-05T07:42:16.836Z,993.21
2016-11-05T07:43:27.118Z,993.19
2016-11-05T07:44:37.385Z,993.19
2016-11-05T07:45:47.667Z,993.2
2016-11-05T07:46:57.953Z,993.25
2016-11-05T07:48:08.240Z,993.25
2016-11-05T07:49:18.257Z,993.25
2016-11-05T07:50:27.931Z,993.24
2016-11-05T07:51:38.250Z,993.21
2016-11-05T07:52:48.527Z,993.24
2016-11-05T07:53:58.488Z,993.23
2016-11-05T07:55:08.448Z,993.23
2016-11-05T07:56:18.098Z,993.2
2016-11-05T07:57:27.770Z,993.21
2016-11-05T07:58:38.071Z,993.19
2016-11-05T07:59:48.053Z,993.16
2016-11-05T08:00:58.350Z,993.14
2016-11-05T08:02:08.641Z,993.13
2016-11-05T08:03:18.948Z,993.12
2016-11-05T08:04:29.240Z,993.04
2016-11-05T08:05:38.923Z,993.08
2016-11-05T08:06:49.212Z,993.1
2016-11-05T08:07:59.515Z,993.06
2016-11-05T08:09:09.496Z,992.97
2016-11-05T08:10:19.794Z,992.95
2016-11-05T08:11:29.757Z,992.97
2016-11-05T08:12:39.766Z,992.94
2016-11-05T08:13:49.438Z,993
2016-11-05T08:14:59.743Z,992.96
2016-11-05T08:16:09.425Z,992.92
2016-11-05T08:17:19.708Z,992.94
2016-11-05T08:18:28.754Z,992.97
2016-11-05T08:19:39.032Z,993.04
2016-11-05T08:20:49.308Z,993
2016-11-05T08:21:59.300Z,993.05
2016-11-05T08:23:09.589Z,993.11
2016-11-05T08:24:19.563Z,993.18
2016-11-05T08:25:29.531Z,993.21
2016-11-05T08:26:39.494Z,993.19
2016-11-05T08:27:49.783Z,993.24
2016-11-05T08:29:00.064Z,993.19
2016-11-05T08:30:10.332Z,993.11
2016-11-05T08:31:20.289Z,993.1
2016-11-05T08:32:30.290Z,993.1
2016-11-05T08:33:40.262Z,993.04
2016-11-05T08:34:49.933Z,993.05
2016-11-05T08:36:00.225Z,993.03
2016-11-05T08:37:09.254Z,992.98
2016-11-05T08:38:19.254Z,992.96
2016-11-05T08:39:28.621Z,992.92
2016-11-05T08:40:38.903Z,992.92
2016-11-05T08:41:49.198Z,992.96
2016-11-05T08:42:59.190Z,992.95
2016-11-05T08:44:08.842Z,992.89
2016-11-05T08:45:19.161Z,992.89
2016-11-05T08:46:29.141Z,992.86
2016-11-05T08:47:39.446Z,992.81
2016-11-05T08:48:49.426Z,992.79
2016-11-05T08:49:59.716Z,992.76
2016-11-05T08:51:09.698Z,992.68
2016-11-05T08:52:19.999Z,992.64
2016-11-05T08:53:30.310Z,992.59
2016-11-05T08:54:40.282Z,992.55
2016-11-05T08:55:50.569Z,992.57
2016-11-05T08:57:00.847Z,992.55
2016-11-05T08:58:10.817Z,992.6
2016-11-05T08:59:20.480Z,992.55
2016-11-05T09:00:30.758Z,992.56
2016-11-05T09:01:41.049Z,992.53
2016-11-05T09:02:50.724Z,992.47
2016-11-05T09:04:00.401Z,992.33
2016-11-05T09:05:10.693Z,992.35
2016-11-05T09:06:20.679Z,992.34
2016-11-05T09:07:30.651Z,992.38
2016-11-05T09:08:40.640Z,992.39
2016-11-05T09:09:50.764Z,992.32
2016-11-05T09:11:01.506Z,992.27
2016-11-05T09:12:11.509Z,992.21
2016-11-05T09:13:22.046Z,992.22
2016-11-05T09:14:31.764Z,992.21
2016-11-05T09:15:41.766Z,992.25
2016-11-05T09:16:51.453Z,992.26
2016-11-05T09:18:01.425Z,992.25
2016-11-05T09:19:11.426Z,992.25
2016-11-05T09:20:21.421Z,992.25
2016-11-05T09:21:31.726Z,992.22
2016-11-05T09:22:41.700Z,992.17
2016-11-05T09:23:51.434Z,992.14
2016-11-05T09:25:01.427Z,992.08
2016-11-05T09:26:11.831Z,992.06
2016-11-05T09:27:21.992Z,992.06
2016-11-05T09:28:32.288Z,992.02
2016-11-05T09:29:42.658Z,992.04
2016-11-05T09:30:52.761Z,992.06
2016-11-05T09:32:02.804Z,992.14
2016-11-05T09:33:12.925Z,992.1
2016-11-05T09:34:22.727Z,992.12
2016-11-05T09:35:33.044Z,992.11
2016-11-05T09:36:42.955Z,992.14
2016-11-05T09:37:52.940Z,992.16
2016-11-05T09:39:03.546Z,992.12
2016-11-05T09:40:14.017Z,992.09
2016-11-05T09:41:24.402Z,992.16
2016-11-05T09:42:33.784Z,992.16
2016-11-05T09:43:43.696Z,992.1
2016-11-05T09:44:54.035Z,992.07
2016-11-05T09:46:04.016Z,992.03
2016-11-05T09:47:14.524Z,991.98
2016-11-05T09:48:24.798Z,991.92
2016-11-05T09:49:34.763Z,991.81
2016-11-05T09:50:45.072Z,991.75
2016-11-05T09:51:55.072Z,991.75
2016-11-05T09:53:05.384Z,991.7
2016-11-05T09:54:15.714Z,991.65
2016-11-05T09:55:25.948Z,991.59
2016-11-05T09:56:35.938Z,991.57
2016-11-05T09:57:46.148Z,991.61
2016-11-05T09:58:56.805Z,991.52
2016-11-05T10:00:06.799Z,991.53
2016-11-05T10:01:16.796Z,991.54
2016-11-05T10:02:26.818Z,991.53
2016-11-05T10:03:36.803Z,991.55
2016-11-05T10:04:46.801Z,991.49
2016-11-05T10:05:57.078Z,991.43
2016-11-05T10:07:07.364Z,991.4
2016-11-05T10:08:17.644Z,991.34
2016-11-05T10:09:27.319Z,991.31
2016-11-05T10:10:37.303Z,991.35
2016-11-05T10:11:47.641Z,991.33
2016-11-05T10:12:57.962Z,991.3
2016-11-05T10:14:08.245Z,991.33
2016-11-05T10:15:18.447Z,991.27
2016-11-05T10:16:28.744Z,991.23
2016-11-05T10:17:38.471Z,991.25
2016-11-05T10:18:48.567Z,991.26
2016-11-05T10:19:58.914Z,991.22
2016-11-05T10:21:08.948Z,991.21
2016-11-05T10:22:19.273Z,991.2
2016-11-05T10:23:29.573Z,991.21
2016-11-05T10:24:39.902Z,991.25
2016-11-05T10:25:49.989Z,991.18
2016-11-05T10:26:59.999Z,991.12
2016-11-05T10:28:10.319Z,991.08
2016-11-05T10:29:20.616Z,991.09
2016-11-05T10:30:30.906Z,991.1
2016-11-05T10:31:40.882Z,991.02
2016-11-05T10:32:51.177Z,991.01
2016-11-05T10:34:01.184Z,990.95
2016-11-05T10:35:11.478Z,990.87
2016-11-05T10:36:21.773Z,990.84
2016-11-05T10:37:31.750Z,990.79
2016-11-05T10:38:42.067Z,990.71
2016-11-05T10:39:52.402Z,990.68
2016-11-05T10:41:02.348Z,990.71
2016-11-05T10:42:12.354Z,990.66
2016-11-05T10:43:22.095Z,990.73
2016-11-05T10:44:32.405Z,990.72
2016-11-05T10:45:42.401Z,990.76
2016-11-05T10:46:52.738Z,990.75
2016-11-05T10:48:02.735Z,990.75
2016-11-05T10:49:13.033Z,990.78
2016-11-05T10:50:23.018Z,990.7
2016-11-05T10:51:33.346Z,990.69
2016-11-05T10:52:43.723Z,990.68
2016-11-05T10:53:53.755Z,990.6
2016-11-05T10:55:03.761Z,990.54
2016-11-05T10:56:14.091Z,990.55
2016-11-05T10:57:24.432Z,990.51
2016-11-05T10:58:34.449Z,990.46
2016-11-05T10:59:44.757Z,990.44
2016-11-05T11:00:55.078Z,990.42
2016-11-05T11:02:05.110Z,990.39
2016-11-05T11:03:15.142Z,990.27
2016-11-05T11:04:24.553Z,990.21
2016-11-05T11:05:34.827Z,990.21
2016-11-05T11:06:44.821Z,990.24
2016-11-05T11:07:54.552Z,990.21
2016-11-05T11:09:04.870Z,990.17
2016-11-05T11:10:15.166Z,990.13
2016-11-05T11:11:25.459Z,990.11
2016-11-05T11:12:35.480Z,990.24
2016-11-05T11:13:44.914Z,990.26
2016-11-05T11:14:54.956Z,990.28
2016-11-05T11:16:04.945Z,990.28
2016-11-05T11:17:15.253Z,990.21
2016-11-05T11:18:25.279Z,990.13
2016-11-05T11:19:35.589Z,990.06
2016-11-05T11:20:45.567Z,990.02
2016-11-05T11:21:55.539Z,989.95
2016-11-05T11:23:05.519Z,989.96
2016-11-05T11:24:15.813Z,989.92
2016-11-05T11:25:26.134Z,989.91
2016-11-05T11:26:36.125Z,989.91
2016-11-05T11:27:46.107Z,989.9
2016-11-05T11:28:56.384Z,989.83
2016-11-05T11:30:06.069Z,989.81
2016-11-05T11:31:16.390Z,989.78
2016-11-05T11:32:26.374Z,989.78
2016-11-05T11:33:36.087Z,989.78
2016-11-05T11:34:46.060Z,989.81
2016-11-05T11:35:56.364Z,989.74
2016-11-05T11:37:06.065Z,989.72
2016-11-05T11:38:15.771Z,989.69
2016-11-05T11:39:26.083Z,989.7
2016-11-05T11:40:35.502Z,989.68
2016-11-05T11:41:46.004Z,989.72
2016-11-05T11:42:59.738Z,989.65
2016-11-05T11:44:10.397Z,989.61
2016-11-05T11:45:20.103Z,989.55
2016-11-05T11:46:30.105Z,989.53
2016-11-05T11:47:40.104Z,989.46
2016-11-05T11:48:50.103Z,989.38
2016-11-05T11:49:59.780Z,989.37
2016-11-05T11:51:10.086Z,989.27
2016-11-05T11:52:20.433Z,989.23
2016-11-05T11:53:30.792Z,989.21
2016-11-05T11:54:40.780Z,989.15
2016-11-05T11:55:50.488Z,989.24
2016-11-05T11:57:00.489Z,989.19
2016-11-05T11:58:10.797Z,989.22
2016-11-05T11:59:20.803Z,989.25
2016-11-05T12:00:30.801Z,989.18
2016-11-05T12:01:41.121Z,989.1
2016-11-05T12:02:51.448Z,989.04
2016-11-05T12:04:01.446Z,988.98
2016-11-05T12:05:11.732Z,988.96
2016-11-05T12:06:22.030Z,988.92
2016-11-05T12:07:32.356Z,988.9
2016-11-05T12:08:42.033Z,988.86
2016-11-05T12:09:52.334Z,988.8
2016-11-05T12:11:02.038Z,988.76
2016-11-05T12:12:12.040Z,988.75
2016-11-05T12:13:22.354Z,988.76
2016-11-05T12:14:32.658Z,988.72
2016-11-05T12:15:42.979Z,988.66
2016-11-05T12:16:52.659Z,988.66
2016-11-05T12:18:02.641Z,988.64
2016-11-05T12:19:12.642Z,988.62
2016-11-05T12:20:22.640Z,988.65
2016-11-05T12:21:32.956Z,988.59
2016-11-05T12:22:43.285Z,988.5
2016-11-05T12:23:53.523Z,988.47
2016-11-05T12:25:05.904Z,988.4
2016-11-05T12:26:21.069Z,988.47
2016-11-05T12:27:34.419Z,988.48
2016-11-05T12:28:46.134Z,988.47
2016-11-05T12:30:00.440Z,988.44
2016-11-05T12:31:13.594Z,988.45
2016-11-05T12:32:26.526Z,988.4
2016-11-05T12:33:39.469Z,988.39
2016-11-05T12:34:53.848Z,988.32
2016-11-05T12:36:06.125Z,988.33
2016-11-05T12:37:16.437Z,988.32
2016-11-05T12:38:26.738Z,988.38
2016-11-05T12:39:36.730Z,988.37
2016-11-05T12:40:47.023Z,988.34
2016-11-05T12:41:57.315Z,988.31
2016-11-05T12:43:07.608Z,988.29
2016-11-05T12:44:17.917Z,988.15
2016-11-05T12:45:28.243Z,988.14
2016-11-05T12:46:38.642Z,988.07
2016-11-05T12:47:48.923Z,988.07
2016-11-05T12:48:59.304Z,988.07
2016-11-05T12:50:09.666Z,988.07
2016-11-05T12:51:19.680Z,988.12
2016-11-05T12:52:29.993Z,988.08
2016-11-05T12:53:40.601Z,988.01
2016-11-05T12:54:50.572Z,987.92
2016-11-05T12:56:00.572Z,987.89
2016-11-05T12:57:10.866Z,987.8
2016-11-05T12:58:20.544Z,987.78
2016-11-05T12:59:30.835Z,987.74
2016-11-05T13:00:40.863Z,987.75
2016-11-05T13:01:50.895Z,987.76
2016-11-05T13:03:01.200Z,987.77
2016-11-05T13:04:11.203Z,987.71
2016-11-05T13:05:21.182Z,987.64
2016-11-05T13:06:30.857Z,987.58
2016-11-05T13:07:40.853Z,987.54
2016-11-05T13:08:50.869Z,987.52
2016-11-05T13:10:00.903Z,987.44
2016-11-05T13:11:11.231Z,987.44
2016-11-05T13:12:20.941Z,987.43
2016-11-05T13:13:31.236Z,987.44
2016-11-05T13:14:41.559Z,987.45
2016-11-05T13:15:51.836Z,987.41
2016-11-05T13:17:02.125Z,987.42
2016-11-05T13:18:12.136Z,987.36
2016-11-05T13:19:22.119Z,987.32
2016-11-05T13:20:32.417Z,987.3
2016-11-05T13:21:42.105Z,987.26
2016-11-05T13:22:51.764Z,987.31
2016-11-05T13:24:02.066Z,987.26
2016-11-05T13:25:12.071Z,987.22
2016-11-05T13:26:22.086Z,987.18
2016-11-05T13:27:32.063Z,987.18
2016-11-05T13:28:42.084Z,987.17
2016-11-05T13:29:52.065Z,987.18
2016-11-05T13:31:01.744Z,987.14
2016-11-05T13:32:12.044Z,987.08
2016-11-05T13:33:22.356Z,987.04
2016-11-05T13:34:32.401Z,986.99
2016-11-05T13:35:42.389Z,987.02
2016-11-05T13:36:52.729Z,987.03
2016-11-05T13:38:02.705Z,987.03
2016-11-05T13:39:12.700Z,986.97
2016-11-05T13:40:23.002Z,986.89
2016-11-05T13:41:32.995Z,986.86
2016-11-05T13:42:43.303Z,986.8
2016-11-05T13:43:53.301Z,986.79
2016-11-05T13:45:03.298Z,986.75
2016-11-05T13:46:13.613Z,986.71
2016-11-05T13:47:23.906Z,986.77
2016-11-05T13:48:34.223Z,986.77
2016-11-05T13:49:44.231Z,986.76
2016-11-05T13:50:53.912Z,986.74
2016-11-05T13:52:04.214Z,986.64
2016-11-05T13:53:14.528Z,986.55
2016-11-05T13:54:24.502Z,986.52
2016-11-05T13:55:34.821Z,986.48
2016-11-05T13:56:45.106Z,986.44
2016-11-05T13:57:55.099Z,986.49
2016-11-05T13:59:05.106Z,986.46
2016-11-05T14:00:15.426Z,986.45
2016-11-05T14:01:25.765Z,986.49
2016-11-05T14:02:36.051Z,986.54
2016-11-05T14:03:46.362Z,986.47
2016-11-05T14:04:56.702Z,986.45
2016-11-05T14:06:07.011Z,986.41
2016-11-05T14:07:17.001Z,986.42
2016-11-05T14:08:27.320Z,986.4
2016-11-05T14:09:37.311Z,986.37
2016-11-05T14:10:47.319Z,986.3
2016-11-05T14:11:57.325Z,986.24
2016-11-05T14:13:07.676Z,986.15
2016-11-05T14:14:17.685Z,986.18
2016-11-05T14:15:27.981Z,986.15
2016-11-05T14:16:37.664Z,986.15
2016-11-05T14:17:47.966Z,986.14
2016-11-05T14:18:58.282Z,986.14
2016-11-05T14:20:08.575Z,986.14
2016-11-05T14:21:18.563Z,986.1
2016-11-05T14:22:28.893Z,986.11
2016-11-05T14:23:38.897Z,986.07
2016-11-05T14:24:49.201Z,986.09
2016-11-05T14:25:59.497Z,986.05
2016-11-05T14:27:08.884Z,986.05
2016-11-05T14:28:18.564Z,986.06
2016-11-05T14:29:28.870Z,986.18
2016-11-05T14:30:38.862Z,986.14
2016-11-05T14:31:48.847Z,986.09
2016-11-05T14:32:58.512Z,986.1
2016-11-05T14:34:08.499Z,986.08
2016-11-05T14:35:18.483Z,986.1
2016-11-05T14:36:28.478Z,986.12
2016-11-05T14:37:38.819Z,986.06
2016-11-05T14:38:48.802Z,986.05
2016-11-05T14:39:58.461Z,986.07
2016-11-05T14:41:08.745Z,986.03
2016-11-05T14:42:18.421Z,986.02
2016-11-05T14:43:27.778Z,985.97
2016-11-05T14:44:38.076Z,985.95
2016-11-05T14:45:47.758Z,985.85
2016-11-05T14:46:57.759Z,985.84
2016-11-05T14:48:08.067Z,985.77
2016-11-05T14:49:17.776Z,985.71
2016-11-05T14:50:27.758Z,985.71
2016-11-05T14:51:38.051Z,985.7
2016-11-05T14:52:47.773Z,985.67
2016-11-05T14:53:57.810Z,985.66
2016-11-05T14:55:07.797Z,985.59
2016-11-05T14:56:17.787Z,985.6
2016-11-05T14:57:27.765Z,985.55
2016-11-05T14:58:38.081Z,985.49
2016-11-05T14:59:48.374Z,985.47
2016-11-05T15:00:57.733Z,985.41
2016-11-05T15:02:07.719Z,985.4
2016-11-05T15:03:17.698Z,985.38
2016-11-05T15:04:27.999Z,985.38
2016-11-05T15:05:38.007Z,985.39
2016-11-05T15:06:48.296Z,985.31
2016-11-05T15:07:57.964Z,985.34
2016-11-05T15:09:08.273Z,985.37